Terminal Aerodrome Forecast
Issued by NWS

Home | Current Version | Previous Version | Text Only | Print | Product List | Glossary Off
Versions: 1 2 3 4 5 6 7 8 9 10 11 12 13 14 15 16 17 18

000
FTUS43 KMPX 162100 AAA
TAFRNH
TAF AMD
KRNH 162134Z 1622/1718 05014G20KT P6SM SCT025 OVC040
      TEMPO 1622/1702 2SM -SN BR SCT012 BKN025
     FM170200 06012G18KT 3SM -SN BR SCT012 BKN025
      TEMPO 1702/1706 1SM -SN BR BKN012
     FM170600 02012KT 4SM -SN OVC012
     FM170800 35011KT P6SM OVC015=

USA.gov is the U.S. government's official web portal to all federal, state and local government web resources and services.